Terminal Aerodrome Forecast
Issued by NWS Jacksonville, FL

Home | Current Version | Previous Version | Text Only | Print | Product List | Glossary On
Versions: 1 2 3 4 5 6 7 8 9 10 11 12 13 14 15 16 17 18 19 20 21 22 23 24 25
000
FTUS42 KJAX 112300
TAFSSI
TAF
KSSI 112340Z 1200/1224 33006KT 6SM -SHRA BR BKN070 BKN120 OVC250
     FM120200 16005KT P6SM SCT150 BKN250
     FM121300 12007KT P6SM SCT020 SCT150 BKN250
     FM121500 10010KT P6SM VCTS SCT030CB SCT100 SCT250 PROB30
      1216/1220 VRB15G25KT 3SM TSRA BR BKN030CB BKN100 BKN250=

USA.gov is the U.S. government's official web portal to all federal, state and local government web resources and services.